createdAt,value
2023-05-23T00:00:51.620Z,83.79
2023-05-23T00:01:51.627Z,85.88
2023-05-23T00:02:51.657Z,83.18
2023-05-23T00:03:51.620Z,83.89
2023-05-23T00:04:51.531Z,82.00
2023-05-23T00:05:51.517Z,83.12
2023-05-23T00:06:51.493Z,83.60
2023-05-23T00:07:51.474Z,82.24
2023-05-23T00:08:51.514Z,81.13
2023-05-23T00:09:51.442Z,80.90
2023-05-23T00:10:51.446Z,80.05
2023-05-23T00:11:51.413Z,81.32
2023-05-23T00:12:51.391Z,81.94
2023-05-23T00:13:51.403Z,82.13
2023-05-23T00:14:51.374Z,79.17
2023-05-23T00:15:51.344Z,79.85
2023-05-23T00:16:51.358Z,81.40
2023-05-23T00:17:51.360Z,80.18
2023-05-23T00:18:51.339Z,80.98
2023-05-23T00:19:51.333Z,78.75
2023-05-23T00:20:51.255Z,82.09
2023-05-23T00:21:51.296Z,79.89
2023-05-23T00:22:51.208Z,82.06
2023-05-23T00:23:51.195Z,79.95
2023-05-23T00:24:51.277Z,79.31
2023-05-23T00:25:51.188Z,78.81
2023-05-23T00:26:51.159Z,80.99
2023-05-23T00:27:51.150Z,81.59
2023-05-23T00:28:51.125Z,78.79
2023-05-23T00:29:51.133Z,81.06
2023-05-23T00:30:51.125Z,79.11
2023-05-23T00:31:51.090Z,79.94
2023-05-23T00:32:51.101Z,79.63
2023-05-23T00:33:51.070Z,78.74
2023-05-23T00:34:51.047Z,78.38
2023-05-23T00:35:51.054Z,78.93
2023-05-23T00:36:51.029Z,80.48
2023-05-23T00:37:51.023Z,79.76
2023-05-23T00:38:50.988Z,79.59
2023-05-23T00:39:50.989Z,78.24
2023-05-23T00:40:51.050Z,78.64
2023-05-23T00:41:52.258Z,76.30
2023-05-23T00:42:51.902Z,76.53
2023-05-23T00:43:50.845Z,77.02
2023-05-23T00:44:50.792Z,77.71
2023-05-23T00:45:50.766Z,77.97
2023-05-23T00:46:50.767Z,79.02
2023-05-23T00:47:53.232Z,79.68
2023-05-23T00:48:50.605Z,79.61
2023-05-23T00:49:50.588Z,79.41
2023-05-23T00:50:50.507Z,79.63
2023-05-23T00:51:50.454Z,77.64
2023-05-23T00:52:50.404Z,77.70
2023-05-23T00:53:50.357Z,79.21
2023-05-23T00:54:50.300Z,78.54
2023-05-23T00:55:51.208Z,77.58
2023-05-23T00:56:50.310Z,78.64
2023-05-23T00:57:50.221Z,78.35
2023-05-23T00:58:50.115Z,75.78
2023-05-23T00:59:50.088Z,75.94
2023-05-23T01:00:50.023Z,75.44
2023-05-23T01:01:50.052Z,77.08
2023-05-23T01:02:50.035Z,75.47
2023-05-23T01:03:49.960Z,74.82
2023-05-23T01:04:49.831Z,76.56
2023-05-23T01:05:49.781Z,75.89
2023-05-23T01:06:49.728Z,76.83
2023-05-23T01:07:49.688Z,75.33
2023-05-23T01:08:50.254Z,73.82
2023-05-23T01:09:49.588Z,75.00
2023-05-23T01:10:50.208Z,76.02
2023-05-23T01:11:49.495Z,74.81
2023-05-23T01:12:49.525Z,76.33
2023-05-23T01:13:49.391Z,75.28
2023-05-23T01:14:49.362Z,74.31
2023-05-23T01:15:49.304Z,74.31
2023-05-23T01:16:49.459Z,73.96
2023-05-23T01:17:49.223Z,74.75
2023-05-23T01:18:49.184Z,74.76
2023-05-23T01:19:49.201Z,73.40
2023-05-23T01:20:49.094Z,72.96
2023-05-23T01:21:49.038Z,75.40
2023-05-23T01:22:48.984Z,71.56
2023-05-23T01:23:48.932Z,72.84
2023-05-23T01:24:48.901Z,73.45
2023-05-23T01:25:48.826Z,72.62
2023-05-23T01:26:48.781Z,71.83
2023-05-23T01:27:48.763Z,72.07
2023-05-23T01:28:48.793Z,71.42
2023-05-23T01:29:48.660Z,73.65
2023-05-23T01:30:48.657Z,71.44
2023-05-23T01:31:48.597Z,72.18
2023-05-23T01:32:48.593Z,72.30
2023-05-23T01:33:48.536Z,72.79
2023-05-23T01:34:48.409Z,70.99
2023-05-23T01:35:48.364Z,72.86
2023-05-23T01:36:48.391Z,73.13
2023-05-23T01:37:48.262Z,70.79
2023-05-23T01:38:48.211Z,71.38
2023-05-23T01:39:48.184Z,73.31
2023-05-23T01:40:48.129Z,71.64
2023-05-23T01:41:48.721Z,71.49
2023-05-23T01:42:48.079Z,69.47
2023-05-23T01:43:48.066Z,68.63
2023-05-23T01:44:48.158Z,70.55
2023-05-23T01:45:48.077Z,68.28
2023-05-23T01:46:48.028Z,67.77
2023-05-23T01:47:48.037Z,67.30
2023-05-23T01:48:48.072Z,69.34
2023-05-23T01:49:48.002Z,69.58
2023-05-23T01:50:47.979Z,69.78
2023-05-23T01:51:47.957Z,69.76
2023-05-23T01:52:47.938Z,68.37
2023-05-23T01:53:47.984Z,67.73
2023-05-23T01:54:47.915Z,68.78
2023-05-23T01:55:47.935Z,70.22
2023-05-23T01:56:47.903Z,69.36
2023-05-23T01:57:47.984Z,67.09
2023-05-23T01:58:47.898Z,68.60
2023-05-23T01:59:47.872Z,65.42
2023-05-23T02:00:48.003Z,65.37
2023-05-23T02:01:47.861Z,66.86
2023-05-23T02:02:47.943Z,66.12
2023-05-23T02:03:47.836Z,64.61
2023-05-23T02:04:47.846Z,65.64
2023-05-23T02:05:47.830Z,63.97
2023-05-23T02:06:47.896Z,64.21
2023-05-23T02:07:47.847Z,66.67
2023-05-23T02:08:47.804Z,67.49
2023-05-23T02:09:47.797Z,65.52
2023-05-23T02:10:47.778Z,65.77
2023-05-23T02:11:47.781Z,68.17
2023-05-23T02:12:47.779Z,68.42
2023-05-23T02:13:47.774Z,66.80
2023-05-23T02:14:47.755Z,67.99
2023-05-23T02:15:47.744Z,65.35
2023-05-23T02:16:47.872Z,68.17
2023-05-23T02:17:48.302Z,66.85
2023-05-23T02:18:47.739Z,65.38
2023-05-23T02:19:47.714Z,66.55
2023-05-23T02:20:47.701Z,64.11
2023-05-23T02:21:47.699Z,66.88
2023-05-23T02:22:47.708Z,66.01
2023-05-23T02:23:47.670Z,65.08
2023-05-23T02:24:47.672Z,63.39
2023-05-23T02:25:47.667Z,64.61
2023-05-23T02:26:47.661Z,62.50
2023-05-23T02:27:47.641Z,64.68
2023-05-23T02:28:47.643Z,65.14
2023-05-23T02:29:47.647Z,62.54
2023-05-23T02:30:47.665Z,62.49
2023-05-23T02:31:47.697Z,63.41
2023-05-23T02:32:47.820Z,61.64
2023-05-23T02:33:47.604Z,61.84
2023-05-23T02:34:47.605Z,61.88
2023-05-23T02:35:47.593Z,62.22
2023-05-23T02:36:47.587Z,64.00
2023-05-23T02:37:47.627Z,62.29
2023-05-23T02:38:47.558Z,63.92
2023-05-23T02:39:47.554Z,62.00
2023-05-23T02:40:47.568Z,62.93
2023-05-23T02:41:47.526Z,62.31
2023-05-23T02:42:47.528Z,63.88
2023-05-23T02:43:47.533Z,61.04
2023-05-23T02:44:47.523Z,60.93
2023-05-23T02:45:47.497Z,63.35
2023-05-23T02:46:47.572Z,61.06
2023-05-23T02:47:47.525Z,60.48
2023-05-23T02:48:47.568Z,61.33
2023-05-23T02:49:47.488Z,62.84
2023-05-23T02:50:47.478Z,63.38
2023-05-23T02:51:47.553Z,61.34
2023-05-23T02:52:47.469Z,62.82
2023-05-23T02:53:47.533Z,63.19
2023-05-23T02:54:47.448Z,61.13
2023-05-23T02:55:47.437Z,62.86
2023-05-23T02:56:47.478Z,62.32
2023-05-23T02:57:47.442Z,60.58
2023-05-23T02:58:47.411Z,60.92
2023-05-23T02:59:47.411Z,61.13
2023-05-23T03:00:47.390Z,61.24
2023-05-23T03:01:47.404Z,61.17
2023-05-23T03:02:48.218Z,59.35
2023-05-23T03:03:47.461Z,60.81
2023-05-23T03:04:47.453Z,58.72
2023-05-23T03:05:47.343Z,58.23
2023-05-23T03:06:47.337Z,61.78
2023-05-23T03:07:47.325Z,60.97
2023-05-23T03:08:47.318Z,60.21
2023-05-23T03:09:47.381Z,61.19
2023-05-23T03:10:47.296Z,59.17
2023-05-23T03:11:47.259Z,60.96
2023-05-23T03:12:47.256Z,58.12
2023-05-23T03:13:47.219Z,59.97
2023-05-23T03:14:47.195Z,59.93
2023-05-23T03:15:47.172Z,60.79
2023-05-23T03:16:47.217Z,58.80
2023-05-23T03:17:47.152Z,60.10
2023-05-23T03:18:47.109Z,61.17
2023-05-23T03:19:47.084Z,59.54
2023-05-23T03:20:47.162Z,60.61
2023-05-23T03:21:47.044Z,58.64
2023-05-23T03:22:47.009Z,59.32
2023-05-23T03:23:46.988Z,59.35
2023-05-23T03:24:46.977Z,56.66
2023-05-23T03:25:47.872Z,56.50
2023-05-23T03:26:46.928Z,57.02
2023-05-23T03:27:46.896Z,57.65
2023-05-23T03:28:46.881Z,58.34
2023-05-23T03:29:47.251Z,57.98
2023-05-23T03:30:46.831Z,58.20
2023-05-23T03:31:46.838Z,58.04
2023-05-23T03:32:46.816Z,58.73
2023-05-23T03:33:46.767Z,59.24
2023-05-23T03:34:46.732Z,59.37
2023-05-23T03:35:46.707Z,59.28
2023-05-23T03:36:46.776Z,57.64
2023-05-23T03:37:46.737Z,58.57
2023-05-23T03:38:46.657Z,57.93
2023-05-23T03:39:46.611Z,58.67
2023-05-23T03:40:46.580Z,55.63
2023-05-23T03:41:46.561Z,57.27
2023-05-23T03:42:46.543Z,58.42
2023-05-23T03:43:47.257Z,59.05
2023-05-23T03:44:46.589Z,57.56
2023-05-23T03:45:46.523Z,59.93
2023-05-23T03:46:46.438Z,55.89
2023-05-23T03:47:46.415Z,57.83
2023-05-23T03:48:46.395Z,58.23
2023-05-23T03:49:46.380Z,56.79
2023-05-23T03:50:46.343Z,57.03
2023-05-23T03:51:46.320Z,57.38
2023-05-23T03:52:46.862Z,57.77
2023-05-23T03:53:46.258Z,59.67
2023-05-23T03:54:46.288Z,56.98
2023-05-23T03:55:46.265Z,56.76
2023-05-23T03:56:46.188Z,57.13
2023-05-23T03:57:46.176Z,58.66
2023-05-23T03:58:46.147Z,56.73
2023-05-23T03:59:46.113Z,57.57
2023-05-23T04:00:46.092Z,58.22
2023-05-23T04:01:46.158Z,58.88
2023-05-23T04:02:46.145Z,56.78
2023-05-23T04:03:46.088Z,56.31
2023-05-23T04:04:46.066Z,55.00
2023-05-23T04:05:46.016Z,55.60
2023-05-23T04:06:45.944Z,56.05
2023-05-23T04:07:45.948Z,54.03
2023-05-23T04:08:46.005Z,54.53
2023-05-23T04:09:45.868Z,55.35
2023-05-23T04:10:45.838Z,55.93
2023-05-23T04:11:45.908Z,53.56
2023-05-23T04:12:45.803Z,53.45
2023-05-23T04:13:45.766Z,54.48
2023-05-23T04:14:45.737Z,53.44
2023-05-23T04:15:45.748Z,53.70
2023-05-23T04:16:45.746Z,54.82
2023-05-23T04:17:45.722Z,52.64
2023-05-23T04:18:45.651Z,54.03
2023-05-23T04:19:45.650Z,51.74
2023-05-23T04:20:45.614Z,54.05
2023-05-23T04:21:45.589Z,54.89
2023-05-23T04:22:45.558Z,53.64
2023-05-23T04:23:45.537Z,54.95
2023-05-23T04:24:45.607Z,54.36
2023-05-23T04:25:45.497Z,53.99
2023-05-23T04:26:46.274Z,50.47
2023-05-23T04:27:45.496Z,53.16
2023-05-23T04:28:45.502Z,52.30
2023-05-23T04:29:45.515Z,52.92
2023-05-23T04:30:45.476Z,52.02
2023-05-23T04:31:45.523Z,51.01
2023-05-23T04:32:45.508Z,53.39
2023-05-23T04:33:45.478Z,51.62
2023-05-23T04:34:45.469Z,51.69
2023-05-23T04:35:45.816Z,52.28
2023-05-23T04:36:45.468Z,52.86
2023-05-23T04:37:45.496Z,54.00
2023-05-23T04:38:45.459Z,53.18
2023-05-23T04:39:45.460Z,53.11
2023-05-23T04:40:45.559Z,50.78
2023-05-23T04:41:45.475Z,52.29
2023-05-23T04:42:45.477Z,52.92
2023-05-23T04:43:45.488Z,50.39
2023-05-23T04:44:45.491Z,52.51
2023-05-23T04:45:45.469Z,52.49
2023-05-23T04:46:45.596Z,52.73
2023-05-23T04:47:45.503Z,50.44
2023-05-23T04:48:46.420Z,50.67
2023-05-23T04:49:45.397Z,51.28
2023-05-23T04:50:45.332Z,51.45
2023-05-23T04:51:45.285Z,52.51
2023-05-23T04:52:45.249Z,51.24
2023-05-23T04:53:45.273Z,53.40
2023-05-23T04:54:45.182Z,54.46
2023-05-23T04:55:45.113Z,52.49
2023-05-23T04:56:45.155Z,50.69
2023-05-23T04:57:45.019Z,52.26
2023-05-23T04:58:44.964Z,50.83
2023-05-23T04:59:45.307Z,51.25
2023-05-23T05:00:45.153Z,49.81
2023-05-23T05:01:44.983Z,52.53
2023-05-23T05:02:44.880Z,49.04
2023-05-23T05:03:44.914Z,50.55
2023-05-23T05:04:44.865Z,50.09
2023-05-23T05:05:44.856Z,48.12
2023-05-23T05:06:44.847Z,47.86
2023-05-23T05:07:45.896Z,48.93
2023-05-23T05:08:44.864Z,48.22
2023-05-23T05:09:44.869Z,48.71
2023-05-23T05:10:44.875Z,48.52
2023-05-23T05:11:45.799Z,47.86
2023-05-23T05:12:44.940Z,47.22
2023-05-23T05:13:44.865Z,48.06
2023-05-23T05:14:44.870Z,47.93
2023-05-23T05:15:44.874Z,48.12
2023-05-23T05:16:44.913Z,49.20
2023-05-23T05:17:45.698Z,50.14
2023-05-23T05:18:44.888Z,49.56
2023-05-23T05:19:44.935Z,50.38
2023-05-23T05:20:45.798Z,55.50
2023-05-23T05:21:44.915Z,57.36
2023-05-23T05:22:44.929Z,59.77
2023-05-23T05:23:45.803Z,61.93
2023-05-23T05:24:44.946Z,65.74
2023-05-23T05:25:44.990Z,67.32
2023-05-23T05:26:45.860Z,74.25
2023-05-23T05:27:44.956Z,78.50
2023-05-23T05:28:45.044Z,85.75
2023-05-23T05:29:44.953Z,95.99
2023-05-23T05:30:45.002Z,95.50
2023-05-23T05:31:44.958Z,91.53
2023-05-23T05:32:44.961Z,86.32
2023-05-23T05:33:44.925Z,76.49
2023-05-23T05:34:45.987Z,68.71
2023-05-23T05:35:44.930Z,63.24
2023-05-23T05:36:44.832Z,55.80
2023-05-23T05:37:44.804Z,49.02
2023-05-23T05:38:44.757Z,44.25
2023-05-23T05:39:44.814Z,39.48
2023-05-23T05:40:44.689Z,34.58
2023-05-23T05:41:44.647Z,29.19
2023-05-23T05:42:44.602Z,25.00
2023-05-23T05:43:44.558Z,26.42
2023-05-23T05:44:44.602Z,25.27
2023-05-23T05:45:44.551Z,26.01
2023-05-23T05:46:44.588Z,26.48
2023-05-23T05:47:44.448Z,28.27
2023-05-23T05:48:44.383Z,25.33
2023-05-23T05:49:44.342Z,25.99
2023-05-23T05:50:44.384Z,26.65
2023-05-23T05:51:44.262Z,25.06
2023-05-23T05:52:44.227Z,25.00
2023-05-23T05:53:44.187Z,27.07
2023-05-23T05:54:44.340Z,28.14
2023-05-23T05:55:44.109Z,26.86
2023-05-23T05:56:44.083Z,26.87
2023-05-23T05:57:44.032Z,26.44
2023-05-23T05:58:44.009Z,26.08
2023-05-23T05:59:43.971Z,26.58
2023-05-23T06:00:44.899Z,29.17
2023-05-23T06:01:43.890Z,27.64
2023-05-23T06:02:44.007Z,24.28
2023-05-23T06:03:44.090Z,29.26
2023-05-23T06:04:43.819Z,25.01
2023-05-23T06:05:43.746Z,28.29
2023-05-23T06:06:43.708Z,25.64
2023-05-23T06:07:43.670Z,26.57
2023-05-23T06:08:43.636Z,25.51
2023-05-23T06:09:43.826Z,25.87
2023-05-23T06:10:43.761Z,27.86
2023-05-23T06:11:44.325Z,26.92
2023-05-23T06:12:43.551Z,26.33
2023-05-23T06:13:43.444Z,26.51
2023-05-23T06:14:43.410Z,26.01
2023-05-23T06:15:43.376Z,26.14
2023-05-23T06:16:44.499Z,28.21
2023-05-23T06:17:43.356Z,25.59
2023-05-23T06:18:43.321Z,27.45
2023-05-23T06:19:43.334Z,25.32
2023-05-23T06:20:43.485Z,28.96
2023-05-23T06:21:43.471Z,28.33
2023-05-23T06:22:43.437Z,25.84
2023-05-23T06:23:43.469Z,26.22
2023-05-23T06:24:43.513Z,26.94
2023-05-23T06:25:43.539Z,25.84
2023-05-23T06:26:43.610Z,27.85
2023-05-23T06:27:43.582Z,26.27
2023-05-23T06:28:43.618Z,26.18
2023-05-23T06:29:43.654Z,27.16
2023-05-23T06:30:44.489Z,26.69
2023-05-23T06:31:43.700Z,26.47
2023-05-23T06:32:43.823Z,29.12
2023-05-23T06:33:43.740Z,29.45
2023-05-23T06:34:43.768Z,27.82
2023-05-23T06:35:44.327Z,26.83
2023-05-23T06:36:43.824Z,27.59
2023-05-23T06:37:43.882Z,28.61
2023-05-23T06:38:43.913Z,27.47
2023-05-23T06:39:43.910Z,30.07
2023-05-23T06:40:43.927Z,31.83
2023-05-23T06:41:43.970Z,30.83
2023-05-23T06:42:43.986Z,29.91
2023-05-23T06:43:44.003Z,27.28
2023-05-23T06:44:44.129Z,27.21
2023-05-23T06:45:44.101Z,26.87
2023-05-23T06:46:44.091Z,25.71
2023-05-23T06:47:44.160Z,27.19
2023-05-23T06:48:44.234Z,25.65
2023-05-23T06:49:44.178Z,28.28
2023-05-23T06:50:44.276Z,27.56
2023-05-23T06:51:44.304Z,26.08
2023-05-23T06:52:44.227Z,25.00
2023-05-23T06:53:44.254Z,27.47
2023-05-23T06:54:44.289Z,30.17
2023-05-23T06:55:44.284Z,28.87
2023-05-23T06:56:44.301Z,31.17
2023-05-23T06:57:44.343Z,32.30
2023-05-23T06:58:47.049Z,30.82
2023-05-23T06:59:44.368Z,29.69
2023-05-23T07:00:44.467Z,28.35
2023-05-23T07:01:44.280Z,28.45
2023-05-23T07:02:44.258Z,25.47
2023-05-23T07:03:44.165Z,26.03
2023-05-23T07:04:44.278Z,25.00
2023-05-23T07:05:44.117Z,25.98
2023-05-23T07:06:44.049Z,25.00
2023-05-23T07:07:43.991Z,27.48
2023-05-23T07:08:43.958Z,25.00
2023-05-23T07:09:43.928Z,25.21
2023-05-23T07:10:43.875Z,25.13
2023-05-23T07:11:43.928Z,26.13
2023-05-23T07:12:43.803Z,25.38
2023-05-23T07:13:43.770Z,25.53
2023-05-23T07:14:43.749Z,26.11
2023-05-23T07:15:43.685Z,26.71
2023-05-23T07:16:43.693Z,27.82
2023-05-23T07:17:43.645Z,33.36
2023-05-23T07:18:43.595Z,44.24
2023-05-23T07:19:43.589Z,53.90
2023-05-23T07:20:44.448Z,63.95
2023-05-23T07:21:44.322Z,70.41
2023-05-23T07:22:43.421Z,79.05
2023-05-23T07:23:44.270Z,88.99
2023-05-23T07:24:43.358Z,98.39
2023-05-23T07:25:53.768Z,106.08
2023-05-23T07:26:44.270Z,106.63
2023-05-23T07:27:43.235Z,109.75
2023-05-23T07:28:43.185Z,117.55
2023-05-23T07:29:43.152Z,130.97
2023-05-23T07:30:43.118Z,157.53
2023-05-23T07:31:43.117Z,166.66
2023-05-23T07:32:43.089Z,172.12
2023-05-23T07:33:43.007Z,176.59
2023-05-23T07:34:42.945Z,182.29
2023-05-23T07:35:42.913Z,187.04
2023-05-23T07:36:42.891Z,193.03
2023-05-23T07:37:42.839Z,197.86
2023-05-23T07:38:42.805Z,200.37
2023-05-23T07:39:42.774Z,202.25
2023-05-23T07:40:42.934Z,207.81
2023-05-23T07:41:42.704Z,208.75
2023-05-23T07:42:42.726Z,212.54
2023-05-23T07:43:42.723Z,213.23
2023-05-23T07:44:42.576Z,216.27
2023-05-23T07:45:42.540Z,220.45
2023-05-23T07:46:42.541Z,221.98
2023-05-23T07:47:42.552Z,223.07
2023-05-23T07:48:42.426Z,225.94
2023-05-23T07:49:42.368Z,226.91
2023-05-23T07:50:42.389Z,231.14
2023-05-23T07:51:42.288Z,230.71
2023-05-23T07:52:42.315Z,232.60
2023-05-23T07:53:42.284Z,234.45
2023-05-23T07:54:42.317Z,234.00
2023-05-23T07:55:42.303Z,237.57
2023-05-23T07:56:42.288Z,236.39
2023-05-23T07:57:42.362Z,236.85
2023-05-23T07:58:42.269Z,238.07
2023-05-23T07:59:42.235Z,235.88
2023-05-23T08:00:42.430Z,236.81
2023-05-23T08:01:42.413Z,236.34
2023-05-23T08:02:42.253Z,236.43
2023-05-23T08:03:42.219Z,238.13
2023-05-23T08:04:42.265Z,236.92
2023-05-23T08:05:42.200Z,236.15
2023-05-23T08:06:52.194Z,239.51
2023-05-23T08:07:43.200Z,239.68
2023-05-23T08:08:42.122Z,240.24
2023-05-23T08:09:42.083Z,241.52
2023-05-23T08:10:42.223Z,241.81
2023-05-23T08:11:41.980Z,236.08
2023-05-23T08:12:41.934Z,232.00
2023-05-23T08:13:41.895Z,232.03
2023-05-23T08:14:50.522Z,224.29
2023-05-23T08:15:42.785Z,224.42
2023-05-23T08:16:41.981Z,214.23
2023-05-23T08:17:41.730Z,206.93
2023-05-23T08:18:41.718Z,208.69
2023-05-23T08:19:41.696Z,209.42
2023-05-23T08:20:41.825Z,204.24
2023-05-23T08:21:41.537Z,199.97
2023-05-23T08:22:41.474Z,180.09
2023-05-23T08:23:42.439Z,173.50
2023-05-23T08:24:41.411Z,146.96
2023-05-23T08:25:41.351Z,137.37
2023-05-23T08:26:41.383Z,131.15
2023-05-23T08:27:41.278Z,121.93
2023-05-23T08:28:41.301Z,132.93
2023-05-23T08:29:41.256Z,135.69
2023-05-23T08:30:41.335Z,134.08
2023-05-23T08:31:41.143Z,141.23
2023-05-23T08:32:41.081Z,144.16
2023-05-23T08:33:41.021Z,148.80
2023-05-23T08:34:40.982Z,154.58
2023-05-23T08:35:40.938Z,157.80
2023-05-23T08:36:40.880Z,160.13
2023-05-23T08:37:40.830Z,159.68
2023-05-23T08:38:40.782Z,159.43
2023-05-23T08:39:40.742Z,155.08
2023-05-23T08:40:40.858Z,158.01
2023-05-23T08:41:40.653Z,159.42
2023-05-23T08:42:40.773Z,153.62
2023-05-23T08:43:40.554Z,157.94
2023-05-23T08:44:40.541Z,157.68
2023-05-23T08:45:40.480Z,162.03
2023-05-23T08:46:40.457Z,162.20
2023-05-23T08:47:41.396Z,167.43
2023-05-23T08:48:40.339Z,169.20
2023-05-23T08:49:40.347Z,174.71
2023-05-23T08:50:40.666Z,175.40
2023-05-23T08:51:40.392Z,181.10
2023-05-23T08:52:40.415Z,187.00
2023-05-23T08:53:40.432Z,190.10
2023-05-23T08:54:40.464Z,190.03
2023-05-23T08:55:41.165Z,196.02
2023-05-23T08:56:40.497Z,198.86
2023-05-23T08:57:40.501Z,202.08
2023-05-23T08:58:40.521Z,204.18
2023-05-23T08:59:40.592Z,207.55
2023-05-23T09:00:40.825Z,208.74
2023-05-23T09:01:40.577Z,207.55
2023-05-23T09:02:40.578Z,211.29
2023-05-23T09:03:40.603Z,211.24
2023-05-23T09:04:40.608Z,212.40
2023-05-23T09:05:40.714Z,210.21
2023-05-23T09:06:40.609Z,211.21
2023-05-23T09:07:40.621Z,209.40
2023-05-23T09:08:40.635Z,214.71
2023-05-23T09:09:40.647Z,217.59
2023-05-23T09:10:40.901Z,220.69
2023-05-23T09:11:40.646Z,221.02
2023-05-23T09:12:40.643Z,223.23
2023-05-23T09:13:40.642Z,224.93
2023-05-23T09:14:40.652Z,221.03
2023-05-23T09:15:40.646Z,220.44
2023-05-23T09:16:40.685Z,214.85
2023-05-23T09:17:40.698Z,214.98
2023-05-23T09:18:40.663Z,218.11
2023-05-23T09:19:40.718Z,217.65
2023-05-23T09:20:40.906Z,218.77
2023-05-23T09:21:40.641Z,227.65
2023-05-23T09:22:40.641Z,229.38
2023-05-23T09:23:40.626Z,234.01
2023-05-23T09:24:40.621Z,236.05
2023-05-23T09:25:40.594Z,237.30
2023-05-23T09:26:40.646Z,240.60
2023-05-23T09:27:40.553Z,238.34
2023-05-23T09:28:40.540Z,238.63
2023-05-23T09:29:40.561Z,242.62
2023-05-23T09:30:40.586Z,242.58
2023-05-23T09:31:40.523Z,243.93
2023-05-23T09:32:40.494Z,245.75
2023-05-23T09:33:41.398Z,246.40
2023-05-23T09:34:40.382Z,248.82
2023-05-23T09:35:40.351Z,248.58
2023-05-23T09:36:40.388Z,247.24
2023-05-23T09:37:40.321Z,247.13
2023-05-23T09:38:40.309Z,249.55
2023-05-23T09:39:40.947Z,247.70
2023-05-23T09:40:40.485Z,247.86
2023-05-23T09:41:40.153Z,249.10
2023-05-23T09:42:40.112Z,248.25
2023-05-23T09:43:40.924Z,248.20
2023-05-23T09:44:40.037Z,249.38
2023-05-23T09:45:40.062Z,249.04
2023-05-23T09:46:39.981Z,249.87
2023-05-23T09:47:39.967Z,245.58
2023-05-23T09:48:39.881Z,247.87
2023-05-23T09:49:39.838Z,250.00
2023-05-23T09:50:40.141Z,248.07
2023-05-23T09:51:39.759Z,248.72
2023-05-23T09:52:39.758Z,250.00
2023-05-23T09:53:39.710Z,249.08
2023-05-23T09:54:39.612Z,250.09
2023-05-23T09:55:39.550Z,250.23
2023-05-23T09:56:39.503Z,250.00
2023-05-23T09:57:39.449Z,249.77
2023-05-23T09:58:39.396Z,250.00
2023-05-23T09:59:39.421Z,250.00
2023-05-23T10:00:39.410Z,249.38
2023-05-23T10:01:39.279Z,249.26
2023-05-23T10:02:39.903Z,249.44
2023-05-23T10:03:39.138Z,250.40
2023-05-23T10:04:39.123Z,249.52
2023-05-23T10:05:39.110Z,248.77
2023-05-23T10:06:39.120Z,249.62
2023-05-23T10:07:39.106Z,247.42
2023-05-23T10:08:39.107Z,249.77
2023-05-23T10:09:39.103Z,248.39
2023-05-23T10:10:39.173Z,246.90
2023-05-23T10:11:39.117Z,248.87
2023-05-23T10:12:39.092Z,249.96
2023-05-23T10:13:39.054Z,248.55
2023-05-23T10:14:39.012Z,249.62
2023-05-23T10:15:38.987Z,249.42
2023-05-23T10:16:39.014Z,249.07
2023-05-23T10:17:40.504Z,249.30
2023-05-23T10:18:38.916Z,250.00
2023-05-23T10:19:38.895Z,246.96
2023-05-23T10:20:38.938Z,248.94
2023-05-23T10:21:39.509Z,248.41
2023-05-23T10:22:38.713Z,249.54
2023-05-23T10:23:38.592Z,248.25
2023-05-23T10:24:38.534Z,249.12
2023-05-23T10:25:39.346Z,248.75
2023-05-23T10:26:38.475Z,248.19
2023-05-23T10:27:38.387Z,248.19
2023-05-23T10:28:38.349Z,248.86
2023-05-23T10:29:38.318Z,249.27
2023-05-23T10:30:38.330Z,248.51
2023-05-23T10:31:38.358Z,248.44
2023-05-23T10:32:38.261Z,249.52
2023-05-23T10:33:38.195Z,249.40
2023-05-23T10:34:38.124Z,248.69
2023-05-23T10:35:38.100Z,247.55
2023-05-23T10:36:38.098Z,248.82
2023-05-23T10:37:38.012Z,249.41
2023-05-23T10:38:37.994Z,247.83
2023-05-23T10:39:37.953Z,248.87
2023-05-23T10:40:37.928Z,247.73
2023-05-23T10:41:37.891Z,247.13
2023-05-23T10:42:37.860Z,247.65
2023-05-23T10:43:37.819Z,246.89
2023-05-23T10:44:37.795Z,247.59
2023-05-23T10:45:37.824Z,247.82
2023-05-23T10:46:37.943Z,248.79
2023-05-23T10:47:37.749Z,248.47
2023-05-23T10:48:37.686Z,248.59
2023-05-23T10:49:37.671Z,247.23
2023-05-23T10:50:37.920Z,246.16
2023-05-23T10:51:37.583Z,246.40
2023-05-23T10:52:38.432Z,248.20
2023-05-23T10:53:37.545Z,247.75
2023-05-23T10:54:37.489Z,245.90
2023-05-23T10:55:37.529Z,247.61
2023-05-23T10:56:37.421Z,246.85
2023-05-23T10:57:37.394Z,248.43
2023-05-23T10:58:37.380Z,248.30
2023-05-23T10:59:37.338Z,245.53
2023-05-23T11:00:37.399Z,246.96
2023-05-23T11:01:37.363Z,247.68
2023-05-23T11:02:37.356Z,246.95
2023-05-23T11:03:37.369Z,246.66
2023-05-23T11:04:37.196Z,246.39
2023-05-23T11:05:37.168Z,246.85
2023-05-23T11:06:37.125Z,245.80
2023-05-23T11:07:37.120Z,246.99
2023-05-23T11:08:47.167Z,245.02
2023-05-23T11:09:38.072Z,245.12
2023-05-23T11:10:36.963Z,245.27
2023-05-23T11:11:36.912Z,245.86
2023-05-23T11:12:36.855Z,245.88
2023-05-23T11:13:36.801Z,247.45
2023-05-23T11:14:36.751Z,247.24
2023-05-23T11:15:36.691Z,245.76
2023-05-23T11:16:36.677Z,244.23
2023-05-23T11:17:36.688Z,244.20
2023-05-23T11:18:36.550Z,243.51
2023-05-23T11:19:36.546Z,244.75
2023-05-23T11:20:36.421Z,244.32
2023-05-23T11:21:36.366Z,243.38
2023-05-23T11:22:36.288Z,243.95
2023-05-23T11:23:36.297Z,245.19
2023-05-23T11:24:36.227Z,243.99
2023-05-23T11:25:36.192Z,243.74
2023-05-23T11:26:36.167Z,243.51
2023-05-23T11:27:36.152Z,244.13
2023-05-23T11:28:36.155Z,242.99
2023-05-23T11:29:36.110Z,243.77
2023-05-23T11:30:36.088Z,243.02
2023-05-23T11:31:36.102Z,244.15
2023-05-23T11:32:36.059Z,244.50
2023-05-23T11:33:36.019Z,242.74
2023-05-23T11:34:35.997Z,242.18
2023-05-23T11:35:35.988Z,241.97
2023-05-23T11:36:35.980Z,241.91
2023-05-23T11:37:35.954Z,239.88
2023-05-23T11:38:35.940Z,241.79
2023-05-23T11:39:35.910Z,241.10
2023-05-23T11:40:35.920Z,240.72
2023-05-23T11:41:35.828Z,240.95
2023-05-23T11:42:35.873Z,241.79
2023-05-23T11:43:35.813Z,240.78
2023-05-23T11:44:35.711Z,239.86
2023-05-23T11:45:35.730Z,240.43
2023-05-23T11:46:35.682Z,240.33
2023-05-23T11:47:36.430Z,241.18
2023-05-23T11:48:35.566Z,240.57
2023-05-23T11:49:35.534Z,240.48
2023-05-23T11:50:35.489Z,240.68
2023-05-23T11:51:36.445Z,239.41
2023-05-23T11:52:35.417Z,240.38
2023-05-23T11:53:35.378Z,240.55
2023-05-23T11:54:35.358Z,240.67
2023-05-23T11:55:35.304Z,239.61
2023-05-23T11:56:35.268Z,240.41
2023-05-23T11:57:35.235Z,239.47
2023-05-23T11:58:35.202Z,238.89
2023-05-23T11:59:35.171Z,238.89
2023-05-23T12:00:35.150Z,238.35
2023-05-23T12:01:35.176Z,239.09
2023-05-23T12:02:35.168Z,238.31
2023-05-23T12:03:35.274Z,238.05
2023-05-23T12:04:35.172Z,239.77
2023-05-23T12:05:34.969Z,237.50
2023-05-23T12:06:34.938Z,238.35
2023-05-23T12:07:34.915Z,238.13
2023-05-23T12:08:34.870Z,236.81
2023-05-23T12:09:34.833Z,237.63
2023-05-23T12:10:34.823Z,237.69
2023-05-23T12:11:34.789Z,236.43
2023-05-23T12:12:34.769Z,237.06
2023-05-23T12:13:34.717Z,235.77
2023-05-23T12:14:34.680Z,233.80
2023-05-23T12:15:34.642Z,234.70
2023-05-23T12:16:34.637Z,235.39
2023-05-23T12:17:34.645Z,234.69
2023-05-23T12:18:34.550Z,233.65
2023-05-23T12:19:34.620Z,232.18
2023-05-23T12:20:34.486Z,232.62
2023-05-23T12:21:34.462Z,233.12
2023-05-23T12:22:34.496Z,232.37
2023-05-23T12:23:35.216Z,233.12
2023-05-23T12:24:34.443Z,235.85
2023-05-23T12:25:34.363Z,232.99
2023-05-23T12:26:34.321Z,233.11
2023-05-23T12:27:34.287Z,234.03
2023-05-23T12:28:34.260Z,231.89
2023-05-23T12:29:35.282Z,234.13
2023-05-23T12:30:34.203Z,233.96
2023-05-23T12:31:34.200Z,231.64
2023-05-23T12:32:34.278Z,232.34
2023-05-23T12:33:34.114Z,234.25
2023-05-23T12:34:34.162Z,237.24
2023-05-23T12:35:34.132Z,237.73
2023-05-23T12:36:34.318Z,237.77
2023-05-23T12:37:34.052Z,237.18
2023-05-23T12:38:34.028Z,237.15
2023-05-23T12:39:34.010Z,235.72
2023-05-23T12:40:33.980Z,234.38
2023-05-23T12:41:33.977Z,236.78
2023-05-23T12:42:33.954Z,233.78